createdAt,value
2018-11-07T00:00:15.289Z,24.43
2018-11-07T00:02:43.761Z,24.85
2018-11-07T00:05:12.743Z,18.25
2018-11-07T00:07:41.070Z,21.65
2018-11-07T00:10:09.528Z,21.55
2018-11-07T00:12:38.338Z,22.75
2018-11-07T00:15:07.971Z,21.45
2018-11-07T00:17:36.182Z,21.33
2018-11-07T00:20:05.343Z,22.07
2018-11-07T00:22:33.553Z,27.65
2018-11-07T00:25:02.153Z,23.50
2018-11-07T00:27:30.526Z,28.57
2018-11-07T00:29:58.840Z,22.80
2018-11-07T00:32:27.018Z,25.37
2018-11-07T00:34:55.259Z,21.05
2018-11-07T00:37:23.511Z,23.22
2018-11-07T00:39:51.893Z,24.92
2018-11-07T00:42:20.179Z,20.32
2018-11-07T00:44:48.381Z,21.45
2018-11-07T00:47:16.599Z,27.15
2018-11-07T00:49:45.323Z,22.30
2018-11-07T00:52:13.546Z,22.15
2018-11-07T00:54:41.879Z,24.37
2018-11-07T00:57:10.245Z,28.05
2018-11-07T00:59:38.737Z,20.32
2018-11-07T01:02:07.522Z,22.48
2018-11-07T01:04:35.898Z,24.52
2018-11-07T01:07:04.147Z,24.37
2018-11-07T01:09:32.392Z,20.97
2018-11-07T01:12:00.603Z,26.80
2018-11-07T01:14:29.318Z,30.15
2018-11-07T01:16:57.534Z,23.98
2018-11-07T01:19:25.743Z,23.73
2018-11-07T01:21:53.950Z,27.95
2018-11-07T01:24:22.165Z,23.15
2018-11-07T01:26:50.398Z,30.70
2018-11-07T01:29:18.603Z,20.50
2018-11-07T01:31:46.815Z,24.43
2018-11-07T01:34:15.360Z,20.92
2018-11-07T01:36:43.635Z,25.08
2018-11-07T01:39:11.842Z,30.82
2018-11-07T01:41:40.840Z,29.05
2018-11-07T01:44:09.583Z,24.35
2018-11-07T01:46:38.170Z,23.35
2018-11-07T01:49:06.903Z,25.02
2018-11-07T01:51:35.112Z,20.50
2018-11-07T01:54:03.934Z,22.32
2018-11-07T01:56:32.147Z,26.60
2018-11-07T01:59:00.430Z,23.98
2018-11-07T02:01:28.646Z,24.90
2018-11-07T02:03:56.865Z,23.57
2018-11-07T02:06:25.099Z,22.52
2018-11-07T02:08:53.522Z,18.87
2018-11-07T02:11:21.738Z,23.22
2018-11-07T02:13:49.966Z,26.77
2018-11-07T02:16:18.176Z,25.02
2018-11-07T02:18:46.546Z,20.50
2018-11-07T02:21:14.893Z,22.90
2018-11-07T02:23:43.110Z,27.10
2018-11-07T02:26:11.471Z,20.52
2018-11-07T02:28:39.678Z,31.35
2018-11-07T02:31:07.994Z,20.35
2018-11-07T02:33:36.210Z,25.77
2018-11-07T02:36:04.467Z,24.32
2018-11-07T02:38:32.693Z,24.47
2018-11-07T02:41:00.910Z,27.93
2018-11-07T02:43:29.174Z,26.80
2018-11-07T02:45:57.394Z,23.05
2018-11-07T02:48:25.930Z,26.35
2018-11-07T02:50:54.550Z,29.27
2018-11-07T02:53:22.775Z,26.60
2018-11-07T02:55:51.007Z,21.87
2018-11-07T02:58:19.222Z,27.20
2018-11-07T03:00:47.430Z,24.18
2018-11-07T03:03:15.940Z,26.17
2018-11-07T03:05:44.145Z,26.82
2018-11-07T03:08:12.364Z,27.37
2018-11-07T03:10:40.694Z,33.18
2018-11-07T03:13:08.826Z,35.25
2018-11-07T03:15:37.307Z,41.33
2018-11-07T03:18:06.154Z,26.93
2018-11-07T03:20:34.370Z,28.05
2018-11-07T03:23:02.619Z,26.05
2018-11-07T03:25:30.829Z,30.65
2018-11-07T03:27:59.521Z,28.35
2018-11-07T03:30:27.778Z,29.30
2018-11-07T03:32:55.992Z,32.20
2018-11-07T03:35:28.157Z,28.45
2018-11-07T03:37:57.429Z,31.45
2018-11-07T03:40:27.034Z,24.02
2018-11-07T03:42:55.274Z,22.13
2018-11-07T03:45:28.946Z,25.72
2018-11-07T03:47:57.162Z,26.90
2018-11-07T03:50:25.568Z,33.30
2018-11-07T03:52:53.795Z,22.73
2018-11-07T03:55:22.087Z,24.75
2018-11-07T03:57:50.702Z,25.62
2018-11-07T04:00:18.947Z,26.68
2018-11-07T04:02:47.170Z,36.80
2018-11-07T04:05:15.542Z,21.48
2018-11-07T04:07:43.886Z,23.83
2018-11-07T04:10:12.100Z,26.48
2018-11-07T04:12:40.354Z,26.00
2018-11-07T04:15:08.963Z,27.67
2018-11-07T04:17:37.751Z,25.15
2018-11-07T04:20:06.807Z,31.68
2018-11-07T04:22:35.027Z,20.95
2018-11-07T04:25:03.251Z,26.87
2018-11-07T04:27:31.521Z,31.50
2018-11-07T04:30:00.343Z,23.00
2018-11-07T04:32:28.556Z,24.67
2018-11-07T04:34:56.981Z,27.15
2018-11-07T04:37:25.195Z,28.45
2018-11-07T04:39:53.586Z,28.17
2018-11-07T04:42:21.938Z,25.02
2018-11-07T04:44:50.150Z,23.95
2018-11-07T04:47:18.354Z,27.55
2018-11-07T04:49:46.570Z,26.85
2018-11-07T04:52:14.775Z,25.80
2018-11-07T04:54:43.454Z,28.62
2018-11-07T04:57:11.710Z,28.05
2018-11-07T04:59:39.914Z,23.92
2018-11-07T05:02:08.120Z,25.35
2018-11-07T05:04:36.515Z,19.95
2018-11-07T05:07:04.894Z,34.65
2018-11-07T05:09:33.103Z,28.47
2018-11-07T05:12:01.330Z,27.95
2018-11-07T05:14:29.682Z,23.75
2018-11-07T05:16:57.898Z,24.02
2018-11-07T05:19:26.181Z,21.50
2018-11-07T05:21:54.358Z,25.75
2018-11-07T05:24:22.746Z,28.38
2018-11-07T05:26:50.999Z,27.48
2018-11-07T05:29:19.210Z,26.52
2018-11-07T05:31:47.476Z,28.40
2018-11-07T05:34:15.682Z,25.55
2018-11-07T05:36:43.890Z,25.57
2018-11-07T05:39:12.490Z,24.35
2018-11-07T05:41:40.711Z,26.90
2018-11-07T05:44:08.915Z,35.40
2018-11-07T05:46:37.416Z,31.93
2018-11-07T05:49:05.738Z,29.05
2018-11-07T05:51:34.290Z,31.30
2018-11-07T05:54:02.501Z,27.35
2018-11-07T05:56:30.702Z,36.68
2018-11-07T05:58:58.935Z,34.70
2018-11-07T06:01:27.154Z,37.63
2018-11-07T06:03:55.662Z,25.05
2018-11-07T06:06:24.327Z,33.83
2018-11-07T06:15:36.436Z,33.30
2018-11-07T06:18:04.763Z,30.60
2018-11-07T06:20:33.116Z,32.58
2018-11-07T06:23:01.348Z,33.10
2018-11-07T06:25:29.700Z,32.10
2018-11-07T06:27:57.902Z,31.00
2018-11-07T06:30:26.559Z,39.60
2018-11-07T06:32:54.774Z,46.00
2018-11-07T06:35:22.976Z,35.28
2018-11-07T06:37:51.187Z,36.20
2018-11-07T06:40:19.414Z,32.48
2018-11-07T06:42:47.942Z,39.23
2018-11-07T06:45:16.155Z,46.13
2018-11-07T06:47:44.570Z,38.00
2018-11-07T06:50:14.432Z,27.93
2018-11-07T06:52:43.031Z,33.50
2018-11-07T06:55:12.268Z,31.00
2018-11-07T06:57:40.776Z,37.65
2018-11-07T07:00:10.165Z,28.80
2018-11-07T07:02:38.375Z,29.35
2018-11-07T07:05:07.239Z,32.67
2018-11-07T07:07:35.739Z,25.12
2018-11-07T07:10:04.479Z,36.30
2018-11-07T07:12:32.690Z,42.10
2018-11-07T07:15:00.887Z,22.80
2018-11-07T07:17:29.141Z,29.72
2018-11-07T07:19:57.403Z,29.52
2018-11-07T07:22:25.602Z,29.90
2018-11-07T07:24:53.807Z,25.92
2018-11-07T07:27:22.019Z,27.50
2018-11-07T07:29:50.270Z,22.45
2018-11-07T07:32:18.890Z,25.48
2018-11-07T07:34:47.106Z,26.35
2018-11-07T07:37:15.306Z,23.92
2018-11-07T07:39:43.690Z,30.37
2018-11-07T07:42:11.979Z,30.35
2018-11-07T07:44:40.322Z,31.17
2018-11-07T07:47:08.530Z,24.65
2018-11-07T07:49:36.750Z,29.37
2018-11-07T07:52:05.566Z,34.45
2018-11-07T07:54:33.780Z,34.03
2018-11-07T07:57:02.051Z,33.42
2018-11-07T07:59:30.263Z,25.92
2018-11-07T08:01:58.600Z,34.20
2018-11-07T08:04:27.119Z,34.03
2018-11-07T08:06:55.621Z,30.02
2018-11-07T08:09:24.167Z,25.82
2018-11-07T08:11:52.374Z,33.58
2018-11-07T08:14:20.794Z,27.27
2018-11-07T08:16:49.060Z,31.65
2018-11-07T08:19:17.264Z,34.35
2018-11-07T08:21:45.539Z,26.05
2018-11-07T08:24:13.778Z,31.55
2018-11-07T08:26:41.983Z,37.03
2018-11-07T08:29:10.801Z,30.95
2018-11-07T08:31:39.135Z,34.63
2018-11-07T08:34:07.351Z,33.65
2018-11-07T08:36:35.685Z,27.50
2018-11-07T08:39:05.774Z,25.52
2018-11-07T08:41:34.362Z,29.65
2018-11-07T08:44:02.563Z,26.50
2018-11-07T08:46:30.771Z,26.97
2018-11-07T08:48:58.979Z,36.58
2018-11-07T08:51:27.199Z,30.15
2018-11-07T08:53:55.643Z,22.95
2018-11-07T08:56:23.843Z,31.48
2018-11-07T08:58:52.083Z,32.48
2018-11-07T09:01:20.414Z,25.40
2018-11-07T09:03:49.035Z,32.33
2018-11-07T09:06:17.522Z,26.48
2018-11-07T09:08:45.733Z,26.80
2018-11-07T09:11:13.959Z,25.17
2018-11-07T09:13:42.634Z,30.80
2018-11-07T09:16:10.846Z,30.05
2018-11-07T09:18:39.073Z,34.73
2018-11-07T09:21:07.870Z,45.48
2018-11-07T09:23:36.253Z,31.57
2018-11-07T09:26:05.002Z,42.83
2018-11-07T09:28:33.224Z,33.20
2018-11-07T09:31:01.451Z,40.33
2018-11-07T09:33:30.063Z,43.28
2018-11-07T09:35:58.274Z,31.75
2018-11-07T09:38:26.688Z,36.13
2018-11-07T09:40:54.962Z,32.15
2018-11-07T09:43:23.177Z,33.33
2018-11-07T09:45:51.422Z,37.05
2018-11-07T09:48:19.733Z,27.35
2018-11-07T09:50:47.899Z,30.70
2018-11-07T09:53:16.357Z,32.42
2018-11-07T09:55:44.627Z,34.25
2018-11-07T09:58:12.967Z,33.98
2018-11-07T10:00:41.191Z,32.35
2018-11-07T10:03:09.619Z,35.05
2018-11-07T10:05:37.927Z,32.42
2018-11-07T10:08:06.099Z,34.65
2018-11-07T10:10:34.330Z,43.68
2018-11-07T10:13:02.561Z,41.80
2018-11-07T10:15:31.565Z,41.77
2018-11-07T10:18:00.214Z,37.55
2018-11-07T10:20:28.678Z,45.35
2018-11-07T10:22:56.882Z,44.85
2018-11-07T10:25:25.167Z,40.85
2018-11-07T10:27:54.545Z,37.93
2018-11-07T10:30:22.708Z,43.50
2018-11-07T10:32:51.475Z,38.65
2018-11-07T10:35:19.719Z,44.10
2018-11-07T10:37:48.030Z,36.70
2018-11-07T10:40:19.047Z,47.20
2018-11-07T10:42:47.628Z,46.65
2018-11-07T10:45:15.887Z,48.30
2018-11-07T10:47:45.262Z,44.45
2018-11-07T10:50:14.903Z,36.25
2018-11-07T10:52:44.071Z,29.65
2018-11-07T10:55:13.515Z,40.58
2018-11-07T10:57:41.747Z,28.50
2018-11-07T11:02:18.632Z,32.53
2018-11-07T11:04:46.843Z,42.08
2018-11-07T11:07:15.218Z,35.13
2018-11-07T11:09:44.307Z,39.98
2018-11-07T11:12:12.591Z,39.38
2018-11-07T11:14:41.453Z,39.40
2018-11-07T11:17:09.708Z,38.65
2018-11-07T11:19:37.899Z,42.58
2018-11-07T11:22:06.926Z,38.58
2018-11-07T11:24:35.142Z,36.85
2018-11-07T11:27:03.403Z,41.92
2018-11-07T11:29:31.762Z,47.15
2018-11-07T11:32:00.005Z,55.45
2018-11-07T11:34:28.434Z,47.50
2018-11-07T11:36:56.810Z,50.48
2018-11-07T11:39:25.266Z,46.90
2018-11-07T11:41:53.612Z,49.67
2018-11-07T11:44:21.907Z,58.28
2018-11-07T11:46:50.545Z,53.38
2018-11-07T11:49:19.146Z,37.53
2018-11-07T11:51:47.362Z,41.42
2018-11-07T11:54:15.749Z,37.75
2018-11-07T11:56:44.298Z,38.92
2018-11-07T11:59:12.706Z,52.73
2018-11-07T12:01:40.747Z,41.35
2018-11-07T12:04:08.984Z,43.48
2018-11-07T12:06:37.495Z,44.75
2018-11-07T12:09:06.825Z,55.80
2018-11-07T12:11:35.322Z,47.33
2018-11-07T12:14:04.010Z,64.80
2018-11-07T12:16:32.296Z,49.70
2018-11-07T12:19:00.638Z,51.88
2018-11-07T12:21:28.848Z,53.15
2018-11-07T12:23:57.073Z,52.80
2018-11-07T12:26:25.283Z,62.35
2018-11-07T12:28:53.498Z,58.08
2018-11-07T12:31:21.731Z,53.55
2018-11-07T12:33:49.960Z,34.30
2018-11-07T12:36:18.469Z,45.35
2018-11-07T12:38:46.961Z,40.50
2018-11-07T12:41:15.178Z,44.93
2018-11-07T12:43:43.418Z,36.40
2018-11-07T12:46:11.869Z,48.08
2018-11-07T12:48:41.034Z,51.13
2018-11-07T12:51:09.275Z,52.58
2018-11-07T12:53:37.641Z,69.65
2018-11-07T12:56:05.998Z,64.07
2018-11-07T12:58:34.270Z,54.70
2018-11-07T13:01:02.526Z,56.42
2018-11-07T13:03:30.758Z,41.53
2018-11-07T13:05:58.970Z,69.62
2018-11-07T13:08:27.182Z,39.13
2018-11-07T13:10:55.420Z,57.35
2018-11-07T13:13:23.637Z,42.38
2018-11-07T13:15:51.847Z,44.60
2018-11-07T13:18:20.057Z,40.75
2018-11-07T13:20:48.275Z,42.08
2018-11-07T13:23:16.703Z,47.13
2018-11-07T13:25:45.254Z,38.53
2018-11-07T13:28:13.591Z,42.90
2018-11-07T13:30:41.774Z,37.83
2018-11-07T13:33:09.974Z,29.07
2018-11-07T13:35:38.282Z,39.83
2018-11-07T13:38:06.742Z,38.15
2018-11-07T13:40:34.779Z,49.53
2018-11-07T13:43:02.986Z,37.20
2018-11-07T13:45:31.331Z,46.70
2018-11-07T13:47:59.517Z,40.48
2018-11-07T13:50:28.009Z,54.60
2018-11-07T13:52:56.569Z,42.38
2018-11-07T13:55:24.783Z,46.55
2018-11-07T13:57:53.922Z,48.90
2018-11-07T14:00:23.494Z,41.53
2018-11-07T14:02:52.539Z,36.70
2018-11-07T14:05:20.968Z,41.15
2018-11-07T14:07:49.018Z,44.48
2018-11-07T14:10:19.202Z,37.60
2018-11-07T14:12:47.886Z,51.55
2018-11-07T14:15:16.106Z,34.92
2018-11-07T14:17:45.114Z,39.92
2018-11-07T14:20:13.343Z,39.18
2018-11-07T14:22:41.743Z,35.90
2018-11-07T14:25:10.871Z,41.73
2018-11-07T14:27:39.160Z,40.92
2018-11-07T14:30:08.750Z,49.40
2018-11-07T14:32:37.227Z,37.90
2018-11-07T14:35:05.458Z,49.08
2018-11-07T14:37:33.667Z,36.77
2018-11-07T14:40:02.287Z,35.10
2018-11-07T14:42:30.494Z,35.95
2018-11-07T14:44:58.759Z,35.40
2018-11-07T14:47:27.007Z,40.58
2018-11-07T14:49:55.218Z,38.40
2018-11-07T14:52:23.422Z,32.78
2018-11-07T14:54:51.634Z,27.42
2018-11-07T14:57:20.407Z,32.63
2018-11-07T14:59:48.618Z,35.08
2018-11-07T15:02:16.827Z,32.23
2018-11-07T15:04:45.094Z,43.30
2018-11-07T15:13:57.552Z,30.27
2018-11-07T15:16:26.022Z,41.23
2018-11-07T15:18:54.483Z,33.18
2018-11-07T15:21:22.699Z,38.83
2018-11-07T15:23:50.926Z,41.70
2018-11-07T15:26:19.255Z,38.33
2018-11-07T15:28:47.523Z,37.50
2018-11-07T15:31:15.736Z,36.30
2018-11-07T15:33:44.411Z,36.58
2018-11-07T15:36:12.749Z,32.98
2018-11-07T15:38:40.874Z,34.92
2018-11-07T15:41:09.102Z,46.25
2018-11-07T15:43:37.326Z,30.08
2018-11-07T15:46:05.793Z,29.57
2018-11-07T15:48:34.038Z,44.90
2018-11-07T15:51:07.712Z,38.10
2018-11-07T15:53:35.928Z,46.02
2018-11-07T15:56:04.198Z,30.32
2018-11-07T15:58:32.414Z,45.70
2018-11-07T16:01:00.622Z,36.35
2018-11-07T16:03:34.259Z,44.70
2018-11-07T16:06:02.512Z,32.25
2018-11-07T16:08:31.291Z,32.58
2018-11-07T16:10:59.498Z,35.85
2018-11-07T16:13:27.744Z,32.25
2018-11-07T16:15:55.956Z,35.00
2018-11-07T16:18:24.199Z,32.08
2018-11-07T16:20:52.463Z,37.50
2018-11-07T16:23:20.712Z,27.30
2018-11-07T16:25:49.044Z,40.25
2018-11-07T16:28:17.238Z,34.48
2018-11-07T16:30:45.443Z,29.30
2018-11-07T16:33:14.101Z,25.50
2018-11-07T16:35:42.326Z,34.85
2018-11-07T16:38:10.538Z,33.55
2018-11-07T16:40:39.045Z,37.58
2018-11-07T16:43:07.291Z,34.95
2018-11-07T16:45:35.503Z,35.60
2018-11-07T16:48:03.781Z,29.67
2018-11-07T16:50:32.035Z,34.05
2018-11-07T16:53:00.264Z,34.53
2018-11-07T16:55:28.529Z,33.67
2018-11-07T16:57:56.778Z,38.53
2018-11-07T17:00:24.999Z,39.67
2018-11-07T17:02:53.490Z,43.68
2018-11-07T17:05:21.712Z,40.55
2018-11-07T17:07:49.949Z,56.25
2018-11-07T17:10:18.321Z,31.80
2018-11-07T17:12:46.998Z,34.92
2018-11-07T17:15:15.215Z,55.83
2018-11-07T17:17:43.961Z,40.60
2018-11-07T17:20:13.726Z,58.58
2018-11-07T17:22:42.243Z,32.75
2018-11-07T17:25:12.306Z,39.38
2018-11-07T17:27:41.167Z,32.23
2018-11-07T17:30:10.565Z,34.50
2018-11-07T17:32:39.763Z,40.67
2018-11-07T17:35:08.894Z,37.13
2018-11-07T17:37:37.099Z,35.38
2018-11-07T17:40:07.594Z,38.40
2018-11-07T17:42:35.974Z,40.50
2018-11-07T17:45:04.850Z,36.35
2018-11-07T17:47:33.518Z,48.60
2018-11-07T17:50:01.795Z,33.33
2018-11-07T17:52:30.417Z,49.08
2018-11-07T17:54:58.634Z,32.25
2018-11-07T17:57:26.844Z,42.73
2018-11-07T17:59:55.075Z,35.80
2018-11-07T18:02:23.311Z,41.65
2018-11-07T18:04:51.554Z,49.13
2018-11-07T18:07:19.757Z,36.80
2018-11-07T18:09:48.308Z,34.88
2018-11-07T18:12:16.527Z,41.02
2018-11-07T18:14:44.743Z,37.35
2018-11-07T18:17:12.990Z,33.75
2018-11-07T18:19:41.518Z,45.95
2018-11-07T18:22:10.547Z,39.70
2018-11-07T18:24:39.298Z,35.80
2018-11-07T18:27:07.517Z,31.65
2018-11-07T18:29:35.764Z,31.93
2018-11-07T18:32:05.073Z,35.63
2018-11-07T18:34:36.270Z,36.00
2018-11-07T18:37:05.435Z,46.90
2018-11-07T18:39:33.640Z,45.90
2018-11-07T18:42:02.711Z,35.75
2018-11-07T18:44:31.235Z,37.67
2018-11-07T18:46:59.564Z,42.78
2018-11-07T18:49:28.159Z,40.30
2018-11-07T18:51:56.447Z,35.30
2018-11-07T18:54:24.765Z,45.00
2018-11-07T18:56:53.787Z,36.23
2018-11-07T18:59:21.999Z,36.75
2018-11-07T19:01:50.216Z,31.30
2018-11-07T19:04:18.432Z,31.60
2018-11-07T19:06:46.718Z,34.95
2018-11-07T19:09:15.076Z,33.20
2018-11-07T19:11:43.810Z,35.13
2018-11-07T19:14:12.483Z,40.92
2018-11-07T19:16:40.715Z,38.15
2018-11-07T19:19:09.165Z,39.78
2018-11-07T19:21:38.137Z,39.00
2018-11-07T19:24:06.354Z,51.13
2018-11-07T19:26:34.660Z,40.78
2018-11-07T19:29:02.891Z,42.95
2018-11-07T19:31:31.111Z,69.00
2018-11-07T19:33:59.612Z,47.65
2018-11-07T19:36:27.858Z,34.88
2018-11-07T19:38:56.082Z,32.20
2018-11-07T19:41:24.470Z,75.00
2018-11-07T19:43:52.726Z,44.13
2018-11-07T19:46:20.921Z,30.35
2018-11-07T19:48:49.314Z,39.03
2018-11-07T19:51:17.917Z,101.05
2018-11-07T19:53:46.185Z,68.10
2018-11-07T19:56:14.394Z,61.58
2018-11-07T19:58:42.602Z,41.42
2018-11-07T20:01:11.101Z,36.65
2018-11-07T20:03:39.731Z,21.40
2018-11-07T20:06:07.953Z,30.32
2018-11-07T20:08:36.175Z,23.95
2018-11-07T20:11:04.390Z,20.05
2018-11-07T20:13:32.629Z,21.60
2018-11-07T20:16:01.518Z,33.88
2018-11-07T20:18:29.748Z,29.48
2018-11-07T20:20:58.399Z,26.23
2018-11-07T20:23:26.813Z,25.77
2018-11-07T20:25:55.426Z,31.65
2018-11-07T20:28:23.646Z,26.75
2018-11-07T20:30:51.850Z,28.23
2018-11-07T20:33:20.330Z,31.70
2018-11-07T20:35:48.724Z,29.05
2018-11-07T20:38:17.212Z,32.00
2018-11-07T20:40:45.422Z,28.32
2018-11-07T20:43:13.638Z,26.00
2018-11-07T20:45:42.158Z,26.77
2018-11-07T20:48:10.367Z,31.40
2018-11-07T20:50:39.002Z,32.13
2018-11-07T20:53:07.217Z,28.47
2018-11-07T20:55:35.422Z,23.27
2018-11-07T20:58:03.659Z,32.75
2018-11-07T21:00:31.878Z,29.65
2018-11-07T21:03:00.383Z,26.12
2018-11-07T21:05:28.811Z,29.15
2018-11-07T21:07:57.014Z,31.33
2018-11-07T21:10:25.228Z,32.17
2018-11-07T21:12:53.876Z,34.10
2018-11-07T21:15:22.502Z,27.93
2018-11-07T21:17:50.939Z,37.15
2018-11-07T21:20:19.156Z,48.50
2018-11-07T21:22:47.371Z,30.20
2018-11-07T21:25:15.648Z,32.35
2018-11-07T21:27:44.791Z,38.55
2018-11-07T21:30:14.372Z,34.70
2018-11-07T21:32:43.090Z,31.93
2018-11-07T21:35:11.431Z,36.95
2018-11-07T21:37:39.849Z,40.67
2018-11-07T21:40:09.215Z,41.15
2018-11-07T21:42:37.793Z,38.38
2018-11-07T21:45:08.187Z,34.20
2018-11-07T21:47:36.363Z,38.53
2018-11-07T21:50:05.486Z,38.08
2018-11-07T21:52:33.965Z,40.12
2018-11-07T21:55:02.166Z,31.57
2018-11-07T21:57:30.379Z,29.35
2018-11-07T21:59:58.878Z,38.95
2018-11-07T22:02:27.344Z,42.23
2018-11-07T22:04:55.798Z,35.98
2018-11-07T22:07:24.019Z,38.92
2018-11-07T22:09:52.226Z,31.70
2018-11-07T22:12:20.434Z,34.88
2018-11-07T22:14:48.665Z,29.95
2018-11-07T22:17:17.269Z,29.80
2018-11-07T22:19:45.913Z,33.23
2018-11-07T22:22:14.603Z,39.40
2018-11-07T22:24:42.807Z,33.78
2018-11-07T22:27:11.062Z,32.23
2018-11-07T22:29:39.291Z,37.05
2018-11-07T22:32:07.515Z,34.67
2018-11-07T22:34:35.722Z,30.57
2018-11-07T22:37:03.963Z,30.10
2018-11-07T22:39:32.184Z,32.25
2018-11-07T22:42:00.847Z,32.15
2018-11-07T22:44:29.254Z,28.70
2018-11-07T22:46:57.462Z,34.25
2018-11-07T22:49:25.673Z,31.37
2018-11-07T22:51:53.885Z,31.25
2018-11-07T22:54:22.377Z,31.45
2018-11-07T22:56:50.591Z,27.70
2018-11-07T22:59:18.814Z,24.92
2018-11-07T23:01:47.027Z,32.78
2018-11-07T23:04:15.236Z,35.65
2018-11-07T23:06:43.867Z,32.93
2018-11-07T23:09:13.022Z,26.87
2018-11-07T23:11:42.533Z,29.65
2018-11-07T23:14:12.235Z,28.45
2018-11-07T23:16:40.924Z,36.30
2018-11-07T23:19:09.575Z,37.55
2018-11-07T23:21:38.106Z,36.05
2018-11-07T23:24:07.369Z,33.58
2018-11-07T23:26:36.054Z,34.10
2018-11-07T23:29:04.610Z,30.97
2018-11-07T23:31:32.834Z,29.80
2018-11-07T23:34:01.935Z,28.55
2018-11-07T23:36:30.420Z,23.80
2018-11-07T23:38:58.641Z,32.73
2018-11-07T23:41:26.845Z,27.22
2018-11-07T23:43:55.210Z,29.23
2018-11-07T23:46:23.432Z,31.93
2018-11-07T23:48:51.770Z,31.00
2018-11-07T23:51:19.982Z,31.20
2018-11-07T23:53:48.197Z,29.45
2018-11-07T23:56:16.427Z,32.58
2018-11-07T23:58:44.716Z,33.02
